To NAV CANADA Home Page Login to a new session Search on AWWS site Feedback and Comments Disclaimer Vers la page française équivalente Tips FAQ What's new on the site To the Forecasts and Observations / NOTAM section To "File a Flight Plan" website Publications and other links Update of the User's profile FIC Telephone Numbers My Weather Data Folder Route Weather Data Regional Weather Data Local Weather Data To the Forecasts and Observations / NOTAM section
Request Generated 12/04/2016 at 22:22:27 UTC . Weather information available at that time is displayed.

METAR/TAF

OTTAWA/GATINEAU/QC    

METAR CYND 042200Z 02003KT 330V040 15SM SCT030 M02/M07 A3022 RMK SC3
SLP239=
METAR CYND 042100Z 17003KT 15SM SCT030 00/M07 A3023 RMK SC3 SLP242=
LWIS CYND 042000Z AUTO 24002KT 01/M07 A3024=

TAF CYND 041738Z 0418/0502 VRB03KT P6SM SCT025
RMK NXT FCST BY 050000Z=
Your time UTC time
Weather data provided by Environment Canada and NAV CANADA